Time;durP1;ratioP1;P1;durP2;ratioP2;P2;SDS_P1;SDS_P2;PMS_P1;PMS_P2;Temp;Humidity;BMP_temperature;BMP_pressure;BME280_temperature;BME280_humidity;BME280_pressure;Samples;Min_cycle;Max_cycle;Signal;HPM_P1;HPM_P2
2020/12/10 00:00:38;;;;;;;4.20;1.45;;;;;;;;;;4966870;28;20188;-56
2020/12/10 00:03:04;;;;;;;2.80;1.08;;;;;;;;;;4968263;28;20123;-58
2020/12/10 00:05:30;;;;;;;4.47;0.90;;;;;;;;;;4967755;28;20098;-58
2020/12/10 00:07:57;;;;;;;4.15;1.30;;;;;;;;;;4955668;28;20055;-58
2020/12/10 00:10:24;;;;;;;3.60;1.20;;;;;;;;;;4967592;28;20039;-58
2020/12/10 00:12:50;;;;;;;4.18;1.15;;;;;;;;;;4963561;28;20098;-58
2020/12/10 00:15:16;;;;;;;3.88;1.35;;;;;;;;;;4967044;28;20086;-58
2020/12/10 00:17:42;;;;;;;4.93;1.23;;;;;;;;;;4965146;28;20148;-59
2020/12/10 00:20:09;;;;;;;5.07;1.40;;;;;;;;;;4968979;28;20049;-56
2020/12/10 00:22:35;;;;;;;2.95;1.25;;;;;;;;;;4955832;28;20122;-58
2020/12/10 00:25:02;;;;;;;3.30;1.20;;;;;;;;;;4966734;28;20051;-57
2020/12/10 00:27:29;;;;;;;3.55;1.15;;;;;;;;;;4962920;28;20045;-58
2020/12/10 00:29:57;;;;;;;2.88;1.00;;;;;;;;;;4948470;28;20050;-58
2020/12/10 00:32:24;;;;;;;5.70;1.38;;;;;;;;;;4966728;28;20051;-56
2020/12/10 00:34:50;;;;;;;4.75;1.33;;;;;;;;;;4968188;28;20046;-57
2020/12/10 00:37:17;;;;;;;4.60;1.25;;;;;;;;;;4965546;28;20066;-57
2020/12/10 00:39:43;;;;;;;3.00;1.20;;;;;;;;;;4965648;28;20051;-58
2020/12/10 00:42:09;;;;;;;7.03;1.33;;;;;;;;;;4967231;28;20101;-55
2020/12/10 00:44:35;;;;;;;4.75;1.38;;;;;;;;;;4964744;28;20035;-58
2020/12/10 00:47:00;;;;;;;3.67;1.35;;;;;;;;;;4965190;28;20047;-57
2020/12/10 00:49:26;;;;;;;8.82;1.58;;;;;;;;;;4966633;28;20043;-58
2020/12/10 00:51:52;;;;;;;5.35;1.63;;;;;;;;;;4966535;28;20043;-59
2020/12/10 00:54:19;;;;;;;7.65;1.75;;;;;;;;;;4964149;28;20070;-59
2020/12/10 00:56:44;;;;;;;5.57;1.60;;;;;;;;;;4964396;28;20039;-58
2020/12/10 00:59:10;;;;;;;5.75;1.65;;;;;;;;;;4965442;28;20051;-58
2020/12/10 01:01:39;;;;;;;4.10;1.75;;;;;;;;;;4964302;28;20039;-59
2020/12/10 01:04:05;;;;;;;4.97;1.60;;;;;;;;;;4965880;28;20123;-58
2020/12/10 01:06:31;;;;;;;7.70;1.75;;;;;;;;;;4963989;28;20089;-59
2020/12/10 01:08:57;;;;;;;6.80;1.50;;;;;;;;;;4966137;28;20035;-58
2020/12/10 01:11:28;;;;;;;5.22;1.80;;;;;;;;;;4955620;28;20126;-57
2020/12/10 01:13:55;;;;;;;5.28;2.30;;;;;;;;;;4964568;28;20047;-58
2020/12/10 01:16:22;;;;;;;4.57;1.90;;;;;;;;;;4962419;28;20043;-58
2020/12/10 01:18:47;;;;;;;5.40;2.20;;;;;;;;;;4964586;28;20057;-58
2020/12/10 01:21:13;;;;;;;5.68;2.15;;;;;;;;;;4965110;28;20129;-59
2020/12/10 01:23:39;;;;;;;4.65;2.13;;;;;;;;;;4962846;28;20089;-58
2020/12/10 01:26:09;;;;;;;6.65;2.47;;;;;;;;;;4964154;28;20035;-59
2020/12/10 01:28:35;;;;;;;6.40;2.00;;;;;;;;;;4964882;28;20070;-57
2020/12/10 01:31:01;;;;;;;5.03;1.85;;;;;;;;;;4964033;28;20677;-59
2020/12/10 01:33:26;;;;;;;4.90;1.98;;;;;;;;;;4963960;28;20035;-59
2020/12/10 01:35:52;;;;;;;7.40;1.80;;;;;;;;;;4962679;28;20054;-57
2020/12/10 01:38:18;;;;;;;4.95;2.00;;;;;;;;;;4966755;28;20086;-59
2020/12/10 01:40:51;;;;;;;5.80;1.80;;;;;;;;;;4969232;28;20055;-57
2020/12/10 01:43:16;;;;;;;4.57;1.88;;;;;;;;;;4965091;28;20034;-57
2020/12/10 01:45:42;;;;;;;6.35;1.60;;;;;;;;;;4963104;28;20137;-58
2020/12/10 01:48:09;;;;;;;6.47;1.70;;;;;;;;;;4966855;28;20142;-57
2020/12/10 01:50:34;;;;;;;4.88;1.50;;;;;;;;;;4961761;28;20089;-58
2020/12/10 01:53:01;;;;;;;8.57;1.77;;;;;;;;;;4966244;28;20043;-56
2020/12/10 01:55:27;;;;;;;5.93;2.20;;;;;;;;;;4963749;28;20035;-58
2020/12/10 01:57:53;;;;;;;7.43;2.20;;;;;;;;;;4963667;28;20603;-58
2020/12/10 02:00:19;;;;;;;6.97;2.00;;;;;;;;;;4959561;28;20050;-58
2020/12/10 02:02:45;;;;;;;7.28;2.30;;;;;;;;;;4964362;28;20111;-58
2020/12/10 02:05:11;;;;;;;7.63;2.42;;;;;;;;;;4965581;28;20050;-57
2020/12/10 02:07:37;;;;;;;7.45;2.22;;;;;;;;;;4946343;28;20094;-56
2020/12/10 02:10:03;;;;;;;8.18;2.92;;;;;;;;;;4964571;28;20062;-58
2020/12/10 02:12:29;;;;;;;8.02;2.30;;;;;;;;;;4961201;28;20154;-56
2020/12/10 02:14:55;;;;;;;6.97;2.42;;;;;;;;;;4964283;28;20066;-57
2020/12/10 02:17:20;;;;;;;8.52;2.83;;;;;;;;;;4962017;28;20184;-57
2020/12/10 02:19:46;;;;;;;10.70;2.75;;;;;;;;;;4966171;28;20042;-57
2020/12/10 02:22:12;;;;;;;8.02;2.28;;;;;;;;;;4968000;28;20058;-57
2020/12/10 02:24:38;;;;;;;6.03;2.38;;;;;;;;;;4962683;28;20177;-57
2020/12/10 02:27:04;;;;;;;6.20;2.35;;;;;;;;;;4948426;28;20054;-55
2020/12/10 02:29:30;;;;;;;7.68;2.67;;;;;;;;;;4964708;28;20163;-58
2020/12/10 02:31:56;;;;;;;7.05;2.80;;;;;;;;;;4964803;28;20047;-57
2020/12/10 02:34:22;;;;;;;6.80;2.38;;;;;;;;;;4965304;28;20038;-57
2020/12/10 02:36:48;;;;;;;7.55;2.53;;;;;;;;;;4964657;28;20095;-58
2020/12/10 02:39:15;;;;;;;6.28;2.50;;;;;;;;;;4965166;28;20045;-58
2020/12/10 02:41:41;;;;;;;4.90;2.28;;;;;;;;;;4965567;28;20050;-58
2020/12/10 02:44:07;;;;;;;7.25;2.65;;;;;;;;;;4950473;28;20043;-58
2020/12/10 02:46:33;;;;;;;16.27;2.85;;;;;;;;;;4964873;28;20050;-58
2020/12/10 02:48:59;;;;;;;7.80;2.50;;;;;;;;;;4969524;28;20415;-57
2020/12/10 02:51:25;;;;;;;7.00;2.38;;;;;;;;;;4970096;28;20050;-59
2020/12/10 02:53:50;;;;;;;8.90;2.40;;;;;;;;;;4971704;28;20071;-57
2020/12/10 02:56:16;;;;;;;5.65;2.20;;;;;;;;;;4971928;28;20049;-58
2020/12/10 02:58:43;;;;;;;9.48;2.47;;;;;;;;;;4970328;28;20041;-57
2020/12/10 03:01:09;;;;;;;6.03;2.33;;;;;;;;;;4970795;28;20039;-57
2020/12/10 03:03:37;;;;;;;7.63;2.58;;;;;;;;;;4969745;28;20106;-59
2020/12/10 03:06:06;;;;;;;11.18;2.83;;;;;;;;;;4948876;28;20062;-58
2020/12/10 03:08:33;;;;;;;6.95;2.80;;;;;;;;;;4966527;28;20062;-58
2020/12/10 03:10:59;;;;;;;6.38;2.67;;;;;;;;;;4963946;28;20102;-57
2020/12/10 03:13:25;;;;;;;13.30;2.97;;;;;;;;;;4963090;28;20085;-58
2020/12/10 03:15:51;;;;;;;11.10;3.40;;;;;;;;;;4946234;28;20817;-57
2020/12/10 03:18:16;;;;;;;11.55;3.08;;;;;;;;;;4963201;28;20032;-58
2020/12/10 03:20:44;;;;;;;6.95;3.00;;;;;;;;;;4962531;28;20114;-56
2020/12/10 03:23:10;;;;;;;9.43;2.53;;;;;;;;;;4962066;28;20102;-56
2020/12/10 03:25:36;;;;;;;13.90;3.30;;;;;;;;;;4963178;28;20167;-56
2020/12/10 03:28:02;;;;;;;9.60;3.28;;;;;;;;;;4960459;28;20073;-56
2020/12/10 03:30:27;;;;;;;11.32;3.00;;;;;;;;;;4962375;28;20256;-56
2020/12/10 03:32:53;;;;;;;8.98;3.45;;;;;;;;;;4961567;28;20086;-55
2020/12/10 03:35:19;;;;;;;7.43;2.75;;;;;;;;;;4961935;28;20039;-57
2020/12/10 03:37:45;;;;;;;8.75;2.40;;;;;;;;;;4961713;28;20039;-55
2020/12/10 03:40:11;;;;;;;7.78;2.67;;;;;;;;;;4962840;28;20031;-57
2020/12/10 03:42:37;;;;;;;11.93;3.10;;;;;;;;;;4964046;28;20047;-57
2020/12/10 03:45:06;;;;;;;10.40;3.40;;;;;;;;;;4965296;28;20043;-58
2020/12/10 03:47:32;;;;;;;7.10;2.90;;;;;;;;;;4963594;28;20043;-56
2020/12/10 03:49:57;;;;;;;19.75;3.58;;;;;;;;;;4945853;28;20087;-58
2020/12/10 03:52:23;;;;;;;10.95;3.47;;;;;;;;;;4962054;28;20042;-58
2020/12/10 03:54:49;;;;;;;15.65;4.68;;;;;;;;;;4960983;28;20065;-57
2020/12/10 03:57:15;;;;;;;11.07;3.60;;;;;;;;;;4962196;28;20054;-57
2020/12/10 03:59:41;;;;;;;10.85;2.95;;;;;;;;;;4961763;28;20050;-58
2020/12/10 04:02:07;;;;;;;10.68;3.80;;;;;;;;;;4963355;28;20093;-55
2020/12/10 04:04:33;;;;;;;9.18;3.65;;;;;;;;;;4961516;28;20723;-58
2020/12/10 04:06:59;;;;;;;10.90;3.88;;;;;;;;;;4961356;28;20047;-59
2020/12/10 04:09:24;;;;;;;10.27;3.60;;;;;;;;;;4962115;28;20162;-56
2020/12/10 04:11:50;;;;;;;8.48;3.78;;;;;;;;;;4963642;28;20113;-56
2020/12/10 04:14:27;;;;;;;10.73;4.05;;;;;;;;;;4966917;28;20071;-56
2020/12/10 04:16:53;;;;;;;11.07;3.72;;;;;;;;;;4946192;29;20464;-58
2020/12/10 04:19:18;;;;;;;10.07;3.13;;;;;;;;;;4944386;29;20107;-58
2020/12/10 04:21:44;;;;;;;13.30;3.92;;;;;;;;;;4946340;29;20666;-55
2020/12/10 04:24:12;;;;;;;12.95;3.60;;;;;;;;;;4946382;29;20043;-57
2020/12/10 04:26:38;;;;;;;11.68;4.13;;;;;;;;;;4946478;29;20182;-57
2020/12/10 04:29:03;;;;;;;13.23;4.18;;;;;;;;;;4947903;29;20067;-57
2020/12/10 04:31:29;;;;;;;9.13;3.83;;;;;;;;;;4947161;29;20043;-58
2020/12/10 04:33:55;;;;;;;9.73;4.35;;;;;;;;;;4948084;29;20114;-57
2020/12/10 04:36:21;;;;;;;8.85;4.32;;;;;;;;;;4947231;29;20051;-58
2020/12/10 04:38:47;;;;;;;12.32;4.22;;;;;;;;;;4946909;29;20083;-59
2020/12/10 04:41:13;;;;;;;11.55;4.70;;;;;;;;;;4947202;29;20126;-57
2020/12/10 04:43:40;;;;;;;10.20;4.85;;;;;;;;;;4945658;29;20053;-58
2020/12/10 04:46:07;;;;;;;12.73;4.30;;;;;;;;;;4947904;29;20252;-54
2020/12/10 04:48:34;;;;;;;11.95;3.72;;;;;;;;;;4945640;29;20067;-56
2020/12/10 04:51:02;;;;;;;10.02;4.63;;;;;;;;;;4946317;29;20054;-55
2020/12/10 04:53:28;;;;;;;16.35;4.80;;;;;;;;;;4947310;29;20042;-57
2020/12/10 04:55:55;;;;;;;17.38;4.80;;;;;;;;;;4947827;29;20050;-57
2020/12/10 04:58:21;;;;;;;13.45;4.60;;;;;;;;;;4947971;29;20031;-58
2020/12/10 05:00:48;;;;;;;11.93;3.95;;;;;;;;;;4950761;29;20149;-56
2020/12/10 05:03:16;;;;;;;10.82;4.82;;;;;;;;;;4948575;29;20095;-57
2020/12/10 05:05:41;;;;;;;10.93;6.60;;;;;;;;;;4945630;29;20118;-55
2020/12/10 05:08:08;;;;;;;11.55;5.10;;;;;;;;;;4945965;29;20047;-57
2020/12/10 05:10:42;;;;;;;12.32;5.35;;;;;;;;;;4942467;29;20043;-58
2020/12/10 05:13:12;;;;;;;10.68;5.38;;;;;;;;;;4946592;29;20051;-56
2020/12/10 05:15:39;;;;;;;11.55;5.82;;;;;;;;;;4945883;29;20131;-56
2020/12/10 05:18:12;;;;;;;18.20;5.72;;;;;;;;;;4946370;29;20032;-58
2020/12/10 05:20:45;;;;;;;12.75;6.00;;;;;;;;;;4943093;29;20167;-58
2020/12/10 05:23:16;;;;;;;16.90;5.57;;;;;;;;;;4930593;29;20124;-57
2020/12/10 05:25:46;;;;;;;14.52;7.30;;;;;;;;;;4946315;29;20047;-58
2020/12/10 05:28:12;;;;;;;11.85;5.45;;;;;;;;;;4947501;29;20050;-59
2020/12/10 05:30:38;;;;;;;11.23;5.38;;;;;;;;;;4943807;29;20252;-58
2020/12/10 05:33:22;;;;;;;14.15;5.95;;;;;;;;;;4947606;29;20147;-57
2020/12/10 05:35:48;;;;;;;17.42;6.88;;;;;;;;;;4947199;29;20070;-58
2020/12/10 05:38:14;;;;;;;15.05;5.65;;;;;;;;;;4946746;29;20054;-57
2020/12/10 05:40:40;;;;;;;15.13;6.28;;;;;;;;;;4928837;29;20051;-57
2020/12/10 05:43:06;;;;;;;15.93;6.93;;;;;;;;;;4945361;29;20039;-58
2020/12/10 05:45:41;;;;;;;14.90;5.97;;;;;;;;;;4944832;29;20091;-58
2020/12/10 05:48:06;;;;;;;14.88;6.45;;;;;;;;;;4930188;29;20055;-59
2020/12/10 05:50:33;;;;;;;14.63;6.10;;;;;;;;;;4933792;29;20043;-59
2020/12/10 05:53:05;;;;;;;16.73;5.72;;;;;;;;;;4944378;29;20047;-59
2020/12/10 05:55:31;;;;;;;14.82;6.20;;;;;;;;;;4943667;29;20044;-59
2020/12/10 05:57:57;;;;;;;11.63;5.80;;;;;;;;;;4946896;29;20043;-56
2020/12/10 06:00:23;;;;;;;15.52;5.57;;;;;;;;;;4947326;29;20177;-59
2020/12/10 06:02:50;;;;;;;15.98;5.13;;;;;;;;;;4946349;29;20043;-59
2020/12/10 06:05:17;;;;;;;12.85;4.47;;;;;;;;;;4945228;29;20066;-57
2020/12/10 06:07:59;;;;;;;15.65;5.00;;;;;;;;;;4944713;29;20055;-59
2020/12/10 06:10:25;;;;;;;13.23;5.03;;;;;;;;;;4934565;29;20039;-58
2020/12/10 06:12:51;;;;;;;16.67;5.55;;;;;;;;;;4933345;29;20080;-56
2020/12/10 06:15:24;;;;;;;14.10;4.68;;;;;;;;;;4946572;29;20039;-58
2020/12/10 06:18:07;;;;;;;15.75;4.65;;;;;;;;;;4927607;29;20074;-57
2020/12/10 06:20:34;;;;;;;11.43;4.40;;;;;;;;;;4946607;29;20054;-58
2020/12/10 06:23:27;;;;;;;12.05;4.82;;;;;;;;;;4946117;29;20067;-56
2020/12/10 06:25:54;;;;;;;14.18;4.47;;;;;;;;;;4936431;29;20054;-55
2020/12/10 06:28:21;;;;;;;11.82;4.50;;;;;;;;;;4913100;29;20892;-57
2020/12/10 06:31:06;;;;;;;16.48;4.32;;;;;;;;;;4945236;29;20043;-58
2020/12/10 06:33:42;;;;;;;16.00;4.85;;;;;;;;;;4944111;29;20039;-58
2020/12/10 06:36:17;;;;;;;11.10;4.43;;;;;;;;;;4942980;29;20059;-56
2020/12/10 06:38:43;;;;;;;10.48;4.20;;;;;;;;;;4945846;29;20427;-57
2020/12/10 06:41:09;;;;;;;11.65;3.80;;;;;;;;;;4946321;29;20043;-58
2020/12/10 06:43:36;;;;;;;10.25;3.90;;;;;;;;;;4944501;29;20440;-58
2020/12/10 06:46:02;;;;;;;14.73;5.13;;;;;;;;;;4944817;29;20139;-58
2020/12/10 06:48:38;;;;;;;10.60;4.20;;;;;;;;;;4943771;29;20512;-59
2020/12/10 06:51:12;;;;;;;11.20;3.83;;;;;;;;;;4945099;29;20089;-59
2020/12/10 06:53:39;;;;;;;11.15;3.50;;;;;;;;;;4928300;29;20039;-55
2020/12/10 06:56:08;;;;;;;9.88;3.53;;;;;;;;;;4927509;29;20054;-57
2020/12/10 06:58:36;;;;;;;16.02;4.28;;;;;;;;;;4944610;29;20050;-58
2020/12/10 07:01:20;;;;;;;13.25;3.75;;;;;;;;;;4944623;29;20039;-58
2020/12/10 07:03:47;;;;;;;10.52;3.55;;;;;;;;;;4942693;29;20063;-58
2020/12/10 07:06:19;;;;;;;10.65;3.35;;;;;;;;;;4945468;29;20134;-58
2020/12/10 07:09:03;;;;;;;13.77;3.92;;;;;;;;;;4943814;29;20061;-58
2020/12/10 07:11:31;;;;;;;7.68;3.47;;;;;;;;;;4940195;28;20097;-54
2020/12/10 07:13:57;;;;;;;10.25;4.57;;;;;;;;;;4918450;29;22863;-57
2020/12/10 07:16:28;;;;;;;13.95;4.40;;;;;;;;;;4941247;29;20039;-57
2020/12/10 07:18:56;;;;;;;15.73;4.50;;;;;;;;;;4945291;29;20044;-57
2020/12/10 07:21:23;;;;;;;9.52;3.75;;;;;;;;;;4942826;29;20058;-57
2020/12/10 07:23:49;;;;;;;9.32;3.78;;;;;;;;;;4943832;29;20035;-58
2020/12/10 07:26:16;;;;;;;10.43;3.72;;;;;;;;;;4943855;29;20145;-57
2020/12/10 07:28:42;;;;;;;11.02;4.28;;;;;;;;;;4944123;29;20043;-58
2020/12/10 07:31:18;;;;;;;11.10;3.55;;;;;;;;;;4944978;29;20039;-57
2020/12/10 07:33:44;;;;;;;8.45;3.40;;;;;;;;;;4943765;29;20638;-58
2020/12/10 07:36:11;;;;;;;11.52;3.72;;;;;;;;;;4927584;29;20043;-57
2020/12/10 07:38:42;;;;;;;9.88;3.25;;;;;;;;;;4925295;29;20070;-54
2020/12/10 07:41:09;;;;;;;7.35;3.42;;;;;;;;;;4944528;29;20047;-56
2020/12/10 07:43:43;;;;;;;7.47;3.15;;;;;;;;;;4944836;29;20061;-57
2020/12/10 07:46:09;;;;;;;6.85;2.88;;;;;;;;;;4949502;29;20484;-57
2020/12/10 07:48:38;;;;;;;7.25;2.97;;;;;;;;;;4948638;29;20062;-57
2020/12/10 07:51:04;;;;;;;10.52;3.67;;;;;;;;;;4949298;29;20102;-58
2020/12/10 07:53:30;;;;;;;8.05;3.67;;;;;;;;;;4946324;29;20062;-57
2020/12/10 07:56:00;;;;;;;8.55;3.38;;;;;;;;;;4947356;29;20047;-57
2020/12/10 07:58:33;;;;;;;12.30;3.67;;;;;;;;;;4948733;29;20626;-57
2020/12/10 08:01:02;;;;;;;9.75;3.22;;;;;;;;;;4949698;29;20047;-55
2020/12/10 08:03:37;;;;;;;10.82;3.63;;;;;;;;;;4948612;29;20673;-57
2020/12/10 08:06:05;;;;;;;8.63;3.47;;;;;;;;;;4930950;29;20142;-55
2020/12/10 08:08:32;;;;;;;6.93;3.20;;;;;;;;;;4946130;29;20443;-57
2020/12/10 08:11:08;;;;;;;8.45;3.70;;;;;;;;;;4947213;29;20052;-57
2020/12/10 08:13:34;;;;;;;9.23;4.15;;;;;;;;;;4948510;29;20046;-57
2020/12/10 08:16:09;;;;;;;7.50;3.50;;;;;;;;;;4947393;29;20035;-58
2020/12/10 08:18:35;;;;;;;8.15;3.35;;;;;;;;;;4947969;29;20043;-56
2020/12/10 08:21:05;;;;;;;8.30;3.97;;;;;;;;;;4912397;29;20604;-57
2020/12/10 08:23:41;;;;;;;11.27;3.10;;;;;;;;;;4946451;29;20058;-56
2020/12/10 08:26:10;;;;;;;7.55;3.72;;;;;;;;;;4946352;29;20698;-58
2020/12/10 08:28:36;;;;;;;9.07;3.85;;;;;;;;;;4930886;29;20067;-57
2020/12/10 08:31:26;;;;;;;9.23;3.50;;;;;;;;;;4912888;29;20052;-58
2020/12/10 08:33:52;;;;;;;7.35;3.25;;;;;;;;;;4896644;29;20087;-57
2020/12/10 08:36:25;;;;;;;7.55;3.40;;;;;;;;;;4911254;29;20052;-57
2020/12/10 08:38:51;;;;;;;9.27;3.75;;;;;;;;;;4910836;29;20048;-58
2020/12/10 08:41:23;;;;;;;7.30;4.00;;;;;;;;;;4910915;29;20041;-58
2020/12/10 08:43:55;;;;;;;10.23;4.95;;;;;;;;;;4909899;29;20088;-57
2020/12/10 08:46:23;;;;;;;7.90;3.60;;;;;;;;;;4910966;29;20037;-58
2020/12/10 08:48:49;;;;;;;8.77;3.95;;;;;;;;;;4882969;29;20044;-57
2020/12/10 08:51:15;;;;;;;8.23;3.80;;;;;;;;;;4909949;29;20054;-55
2020/12/10 08:53:52;;;;;;;8.55;3.67;;;;;;;;;;4909413;29;20050;-57
2020/12/10 08:56:23;;;;;;;8.30;3.92;;;;;;;;;;4907294;29;20078;-57
2020/12/10 08:58:49;;;;;;;7.25;3.60;;;;;;;;;;4912902;29;20628;-57
2020/12/10 09:01:16;;;;;;;6.78;3.50;;;;;;;;;;4909986;29;20048;-57
2020/12/10 09:03:43;;;;;;;10.65;4.20;;;;;;;;;;4895349;29;20068;-57
2020/12/10 09:06:09;;;;;;;9.73;4.07;;;;;;;;;;4911490;29;20080;-57
2020/12/10 09:08:38;;;;;;;8.88;3.40;;;;;;;;;;4924608;29;20265;-57
2020/12/10 09:11:04;;;;;;;13.18;3.45;;;;;;;;;;4928723;29;20550;-56
2020/12/10 09:13:30;;;;;;;12.32;3.38;;;;;;;;;;4945046;29;20039;-57
2020/12/10 09:15:56;;;;;;;12.07;3.40;;;;;;;;;;4944120;29;20393;-57
2020/12/10 09:18:22;;;;;;;7.30;2.80;;;;;;;;;;4944039;29;20229;-57
2020/12/10 09:20:48;;;;;;;8.80;2.83;;;;;;;;;;4946643;29;20063;-54
2020/12/10 09:23:14;;;;;;;12.20;4.00;;;;;;;;;;4945310;29;20047;-57
2020/12/10 09:25:40;;;;;;;8.05;2.88;;;;;;;;;;4943514;29;20820;-57
2020/12/10 09:28:08;;;;;;;10.23;3.38;;;;;;;;;;4945859;29;20035;-56
2020/12/10 09:30:37;;;;;;;9.23;2.90;;;;;;;;;;4946770;29;22366;-57
2020/12/10 09:33:03;;;;;;;10.63;3.15;;;;;;;;;;4944119;29;20063;-57
2020/12/10 09:35:49;;;;;;;8.40;3.05;;;;;;;;;;4945670;29;20043;-57
2020/12/10 09:38:24;;;;;;;11.52;4.10;;;;;;;;;;4944598;29;20047;-57
2020/12/10 09:40:50;;;;;;;11.50;4.35;;;;;;;;;;4921529;29;20044;-57
2020/12/10 09:43:16;;;;;;;9.27;3.85;;;;;;;;;;4945973;29;20058;-57
2020/12/10 09:45:45;;;;;;;8.52;3.95;;;;;;;;;;4945412;29;20047;-55
2020/12/10 09:48:11;;;;;;;8.93;4.15;;;;;;;;;;4946139;29;20055;-57
2020/12/10 09:50:38;;;;;;;8.35;3.97;;;;;;;;;;4946792;29;20682;-57
2020/12/10 09:53:15;;;;;;;10.70;3.90;;;;;;;;;;4944955;29;20044;-54
2020/12/10 09:58:21;;;;;;;7.88;3.35;;;;;;;;;;4943528;29;20043;-58
2020/12/10 10:00:51;;;;;;;9.45;3.78;;;;;;;;;;4945098;29;20067;-58
2020/12/10 10:03:17;;;;;;;8.27;3.67;;;;;;;;;;4945147;29;20035;-58
2020/12/10 10:05:43;;;;;;;13.40;4.28;;;;;;;;;;4944061;28;20111;-56
2020/12/10 10:08:09;;;;;;;9.35;3.35;;;;;;;;;;4944080;29;20067;-57
2020/12/10 10:10:35;;;;;;;9.65;3.15;;;;;;;;;;4942125;29;20055;-57
2020/12/10 10:13:01;;;;;;;9.77;3.17;;;;;;;;;;4944752;29;20051;-57
2020/12/10 10:15:27;;;;;;;15.88;3.60;;;;;;;;;;4944745;29;20051;-57
2020/12/10 10:17:53;;;;;;;8.35;3.38;;;;;;;;;;4919534;29;20037;-57
2020/12/10 10:20:39;;;;;;;12.02;3.75;;;;;;;;;;4944811;29;20051;-56
2020/12/10 10:23:06;;;;;;;10.70;3.40;;;;;;;;;;4945281;29;20495;-55
2020/12/10 10:25:33;;;;;;;8.90;3.10;;;;;;;;;;4929223;29;20131;-56
2020/12/10 10:28:00;;;;;;;6.97;2.65;;;;;;;;;;4945059;29;20050;-57
2020/12/10 10:30:26;;;;;;;10.25;2.60;;;;;;;;;;4943733;29;20203;-57
2020/12/10 10:32:52;;;;;;;5.35;2.53;;;;;;;;;;4943304;29;20067;-57
2020/12/10 10:35:18;;;;;;;8.98;2.53;;;;;;;;;;4946427;29;20939;-57
2020/12/10 10:37:46;;;;;;;10.13;2.78;;;;;;;;;;4946841;29;20048;-55
2020/12/10 10:40:11;;;;;;;8.68;2.70;;;;;;;;;;4944938;29;20137;-59
2020/12/10 10:42:37;;;;;;;8.48;2.67;;;;;;;;;;4942354;29;20485;-58
2020/12/10 10:45:03;;;;;;;7.75;2.60;;;;;;;;;;4946211;29;20094;-57
2020/12/10 10:47:29;;;;;;;5.53;2.80;;;;;;;;;;4945376;29;20053;-58
2020/12/10 10:49:56;;;;;;;7.72;2.80;;;;;;;;;;4943393;29;20082;-58
2020/12/10 10:52:24;;;;;;;6.13;2.95;;;;;;;;;;4942966;29;20122;-56
2020/12/10 10:54:52;;;;;;;6.78;2.50;;;;;;;;;;4915334;29;20043;-58
2020/12/10 10:57:38;;;;;;;5.80;2.58;;;;;;;;;;4938107;29;21645;-57
2020/12/10 11:00:05;;;;;;;4.53;2.17;;;;;;;;;;4945736;29;20481;-57
2020/12/10 11:02:34;;;;;;;8.52;2.88;;;;;;;;;;4943264;29;20508;-57
2020/12/10 11:05:00;;;;;;;6.03;3.45;;;;;;;;;;4943542;29;20090;-57
2020/12/10 11:07:26;;;;;;;6.13;2.58;;;;;;;;;;4926374;29;20507;-56
2020/12/10 11:09:52;;;;;;;6.47;2.50;;;;;;;;;;4944013;29;20051;-57
2020/12/10 11:12:18;;;;;;;5.40;2.15;;;;;;;;;;4925777;29;20039;-57
2020/12/10 11:14:46;;;;;;;11.20;2.50;;;;;;;;;;4944436;29;20082;-58
2020/12/10 11:17:12;;;;;;;5.13;2.08;;;;;;;;;;4943920;29;20036;-56
2020/12/10 11:19:38;;;;;;;3.72;1.65;;;;;;;;;;4945786;29;20047;-58
2020/12/10 11:22:04;;;;;;;4.43;2.00;;;;;;;;;;4946754;29;20082;-56
2020/12/10 11:24:33;;;;;;;4.93;1.85;;;;;;;;;;4945870;29;20044;-58
2020/12/10 11:26:59;;;;;;;5.13;1.58;;;;;;;;;;4948391;29;20103;-57
2020/12/10 11:29:25;;;;;;;5.60;2.30;;;;;;;;;;4946225;29;20071;-57
2020/12/10 11:31:52;;;;;;;5.30;2.20;;;;;;;;;;4946631;28;20116;-57
2020/12/10 11:34:19;;;;;;;4.15;1.52;;;;;;;;;;4947754;29;20035;-57
2020/12/10 11:36:47;;;;;;;4.93;1.77;;;;;;;;;;4945795;29;20044;-57
2020/12/10 11:39:13;;;;;;;8.40;2.53;;;;;;;;;;4948032;29;20047;-57
2020/12/10 11:41:40;;;;;;;5.50;2.60;;;;;;;;;;4947124;29;20051;-57
2020/12/10 11:44:17;;;;;;;5.35;2.60;;;;;;;;;;4947338;29;20085;-58
2020/12/10 11:46:46;;;;;;;7.97;2.00;;;;;;;;;;4927926;29;20055;-57
2020/12/10 11:49:12;;;;;;;7.35;2.42;;;;;;;;;;4948436;29;20499;-57
2020/12/10 11:51:38;;;;;;;4.88;1.80;;;;;;;;;;4946717;29;20054;-57
2020/12/10 11:54:07;;;;;;;5.32;1.92;;;;;;;;;;4948734;29;20047;-56
2020/12/10 11:56:55;;;;;;;5.03;1.52;;;;;;;;;;4944378;29;20077;-56
2020/12/10 11:59:22;;;;;;;5.90;1.98;;;;;;;;;;4931678;29;20047;-57
2020/12/10 12:01:47;;;;;;;2.22;0.80;;;;;;;;;;4946447;29;20059;-56
2020/12/10 12:04:18;;;;;;;2.90;0.93;;;;;;;;;;4947489;29;20094;-57
2020/12/10 12:07:04;;;;;;;3.72;1.00;;;;;;;;;;4945483;29;20066;-55
2020/12/10 12:09:30;;;;;;;2.33;0.70;;;;;;;;;;4950622;29;20047;-57
2020/12/10 12:11:56;;;;;;;1.63;0.50;;;;;;;;;;4952086;29;20046;-55
2020/12/10 12:14:21;;;;;;;1.67;0.50;;;;;;;;;;4947967;29;20081;-56
2020/12/10 12:16:51;;;;;;;1.83;0.50;;;;;;;;;;4945808;29;20126;-57
2020/12/10 12:19:16;;;;;;;2.75;0.50;;;;;;;;;;4937303;29;20482;-56
2020/12/10 12:21:42;;;;;;;0.95;0.40;;;;;;;;;;4945523;29;20055;-57
2020/12/10 12:24:08;;;;;;;0.65;0.32;;;;;;;;;;4949140;29;20523;-57
2020/12/10 12:26:36;;;;;;;0.82;0.40;;;;;;;;;;4946649;29;21118;-58
2020/12/10 12:29:02;;;;;;;1.25;0.50;;;;;;;;;;4946977;28;20058;-55
2020/12/10 12:31:29;;;;;;;1.13;0.40;;;;;;;;;;4947466;29;20050;-57
2020/12/10 12:34:11;;;;;;;1.92;0.50;;;;;;;;;;4946422;29;20094;-57
2020/12/10 12:36:57;;;;;;;1.13;0.40;;;;;;;;;;4945550;29;20150;-56
2020/12/10 12:39:22;;;;;;;1.17;0.40;;;;;;;;;;4943916;29;20095;-57
2020/12/10 12:41:48;;;;;;;1.45;0.50;;;;;;;;;;4930230;29;20120;-57
2020/12/10 12:44:14;;;;;;;1.02;0.40;;;;;;;;;;4948127;28;20053;-57
2020/12/10 12:46:40;;;;;;;3.03;0.45;;;;;;;;;;4944381;29;20038;-56
2020/12/10 12:49:06;;;;;;;1.00;0.40;;;;;;;;;;4945930;29;20055;-57
2020/12/10 12:51:32;;;;;;;1.30;0.50;;;;;;;;;;4917058;29;20043;-57
2020/12/10 12:54:03;;;;;;;1.05;0.40;;;;;;;;;;4948957;29;20082;-57
2020/12/10 12:56:29;;;;;;;2.33;0.65;;;;;;;;;;4930038;29;20124;-57
2020/12/10 12:58:55;;;;;;;3.22;0.60;;;;;;;;;;4949834;29;20093;-57
2020/12/10 13:01:20;;;;;;;1.80;0.50;;;;;;;;;;4948312;29;20035;-56
2020/12/10 13:03:47;;;;;;;1.35;0.47;;;;;;;;;;4949579;29;20047;-54
2020/12/10 13:06:13;;;;;;;1.85;0.50;;;;;;;;;;4949927;29;20054;-55
2020/12/10 13:08:40;;;;;;;2.00;0.60;;;;;;;;;;4948206;29;20039;-58
2020/12/10 13:11:06;;;;;;;1.35;0.50;;;;;;;;;;4950608;29;20099;-55
2020/12/10 13:13:34;;;;;;;1.63;0.50;;;;;;;;;;4953948;29;20035;-57
2020/12/10 13:16:03;;;;;;;1.83;0.60;;;;;;;;;;4930744;29;20039;-57
2020/12/10 13:18:50;;;;;;;1.77;0.60;;;;;;;;;;4951487;29;20047;-57
2020/12/10 13:21:25;;;;;;;1.48;0.50;;;;;;;;;;4950463;29;20035;-57
2020/12/10 13:23:51;;;;;;;2.70;0.50;;;;;;;;;;4949774;29;20031;-57
2020/12/10 13:26:35;;;;;;;2.35;0.60;;;;;;;;;;4948897;29;20047;-58
2020/12/10 13:29:04;;;;;;;2.22;0.70;;;;;;;;;;4945554;29;20047;-58
2020/12/10 13:31:30;;;;;;;1.52;0.50;;;;;;;;;;4944526;29;20032;-57
2020/12/10 13:33:58;;;;;;;2.15;0.50;;;;;;;;;;4946358;29;20047;-58
2020/12/10 13:36:25;;;;;;;2.85;0.93;;;;;;;;;;4944112;29;20044;-56
2020/12/10 13:38:51;;;;;;;2.10;0.60;;;;;;;;;;4947431;29;20043;-54
2020/12/10 13:41:17;;;;;;;1.70;0.60;;;;;;;;;;4946406;28;21979;-56
2020/12/10 13:43:44;;;;;;;2.72;0.70;;;;;;;;;;4945143;29;20051;-55
2020/12/10 13:46:12;;;;;;;2.03;0.60;;;;;;;;;;4947789;29;20070;-57
2020/12/10 13:48:38;;;;;;;2.65;0.90;;;;;;;;;;4926655;29;20463;-57
2020/12/10 13:51:06;;;;;;;3.08;0.80;;;;;;;;;;4945114;29;20048;-56
2020/12/10 13:53:32;;;;;;;4.97;1.00;;;;;;;;;;4927216;29;20039;-55
2020/12/10 13:55:58;;;;;;;4.00;1.08;;;;;;;;;;4947682;29;20823;-58
2020/12/10 13:58:24;;;;;;;5.78;1.50;;;;;;;;;;4929217;29;20102;-57
2020/12/10 14:00:53;;;;;;;3.45;1.20;;;;;;;;;;4945238;29;20031;-58
2020/12/10 14:03:19;;;;;;;14.40;1.48;;;;;;;;;;4912454;29;20086;-58
2020/12/10 14:05:47;;;;;;;3.72;1.25;;;;;;;;;;4946371;29;20047;-58
2020/12/10 14:08:14;;;;;;;5.65;1.30;;;;;;;;;;4945070;29;20071;-57
2020/12/10 14:10:41;;;;;;;3.80;1.30;;;;;;;;;;4941375;29;20039;-58
2020/12/10 14:13:07;;;;;;;4.55;1.15;;;;;;;;;;4943193;29;20043;-58
2020/12/10 14:15:54;;;;;;;9.20;1.50;;;;;;;;;;4947100;29;20624;-57
2020/12/10 14:18:21;;;;;;;2.60;0.77;;;;;;;;;;4943290;29;20075;-58
2020/12/10 14:21:05;;;;;;;6.28;1.10;;;;;;;;;;4943604;29;20067;-58
2020/12/10 14:23:53;;;;;;;6.35;1.30;;;;;;;;;;4945131;29;20503;-58
2020/12/10 14:26:19;;;;;;;4.68;1.30;;;;;;;;;;4944371;29;20491;-58
2020/12/10 14:29:04;;;;;;;5.97;0.90;;;;;;;;;;4905939;29;20056;-56
2020/12/10 14:31:30;;;;;;;3.00;1.00;;;;;;;;;;4883910;29;20104;-58
2020/12/10 14:33:56;;;;;;;7.65;1.40;;;;;;;;;;4886066;29;20173;-57
2020/12/10 14:36:23;;;;;;;6.82;1.30;;;;;;;;;;4906955;29;20073;-58
2020/12/10 14:38:48;;;;;;;5.25;1.30;;;;;;;;;;4905139;29;20067;-57
2020/12/10 14:41:17;;;;;;;4.88;1.30;;;;;;;;;;4903971;29;22799;-58
2020/12/10 14:43:44;;;;;;;3.55;1.17;;;;;;;;;;4905783;29;20044;-58
2020/12/10 14:46:10;;;;;;;3.60;1.25;;;;;;;;;;4906029;29;20032;-57